Bradenton Beach, Florida
Current Conditions -  °F | °C
As of 1:53 AM on Friday 19 Dec 2014 (Local Time) from KSRQ Reporting Station
Clear Clear  
Wind Chill: 50°   Ceiling: Unl
Heat Index: 50°   Visibility: 10mi
Dew Point: 49°   Wind: 5mph
Humidity: 96%   Direction: 50°NE
Pressure: 30.1"   Gusts: NA
Location:  27.46°N, 82.7°W
Report Text: KSRQ 190653Z AUTO 05004KT 10SM CLR 10/09 A3010 RMK AO2 SLP193 T01000094
Loading
Personal Weather Stations






























Interactive Weather Map New forecast layout! Learn more

10-Day Weather Forecast

Advertisements
Track Severe Weather on mobile